Warren Jr — WDH4232 — position and weather

sailwx.info

Track history (hours):
 
Tides and Currents Weather Stations Pressure Air Temp Water Temp Dewpoint Dewpoint Depression Visibility Wind Speed Wind Dir Waves Ship Positions

Warren Jr

Owner: Warren Jr, LLC, Cape May, NJ. More information available from US FCC via Universal Licensing System and Coast Guard Vessel Documentation Center.

Last reported at 2018-Feb-18 06:30 UTC. Time now 2018-Feb-18 06:52 UTC.
Position N 42°23' W 071°03'.

Length 46 m; draft 3.2 m.

MMSI: 367615560.

Date/timePositionNaut miles runAvg speedWind from/ knotsBaromVisibWave heightAir tempDewpointWater temp
2018-Feb-18 06:30N 42°23' W 071°03'0 0.0
2018-Feb-18 06:00N 42°23' W 071°03'0 0.0
2018-Feb-18 05:30N 42°23' W 071°03'0 0.0
2018-Feb-18 05:00N 42°23' W 071°03'0 0.0
2018-Feb-18 04:30N 42°23' W 071°03'0 0.0
2018-Feb-18 04:00N 42°23' W 071°03'0 0.0
2018-Feb-18 03:30N 42°23' W 071°03'0 0.0
2018-Feb-18 03:00N 42°23' W 071°03'0 0.0
2018-Feb-18 02:30N 42°23' W 071°03'0 0.0
2018-Feb-18 02:00N 42°23' W 071°03'0 0.0
2018-Feb-18 01:30N 42°23' W 071°03'0 0.0
2018-Feb-18 01:00N 42°23' W 071°03'0 0.0
2018-Feb-18 00:24N 42°23' W 071°03'0 0.0
2018-Feb-18 00:00N 42°23' W 071°03'0 0.0
2018-Feb-17 23:30N 42°23' W 071°03'0 0.0
2018-Feb-17 22:54N 42°23' W 071°03'0 0.0
2018-Feb-17 22:24N 42°23' W 071°03'0 0.0
2018-Feb-17 22:00N 42°23' W 071°03'0 0.0
2018-Feb-17 21:24N 42°23' W 071°03'0 0.0
2018-Feb-17 21:00N 42°23' W 071°03'0 0.0
2018-Feb-17 20:24N 42°23' W 071°03'0 0.0
2018-Feb-17 20:00N 42°23' W 071°03'0 0.0
2018-Feb-17 19:30N 42°23' W 071°03'0 0.0
2018-Feb-17 18:54N 42°23' W 071°03'0 0.0
2018-Feb-17 18:30N 42°23' W 071°03'0 0.0
2018-Feb-17 17:51N 42°23' W 071°03'0 0.0
2018-Feb-17 17:30N 42°23' W 071°03'0 0.0
2018-Feb-17 16:54N 42°23' W 071°03'0 0.0
2018-Feb-17 16:30N 42°23' W 071°03'0 0.0
2018-Feb-17 16:00N 42°23' W 071°03'0 0.0
2018-Feb-17 15:27N 42°23' W 071°03'0 0.0
2018-Feb-17 14:54N 42°23' W 071°03'0 0.0
2018-Feb-17 14:24N 42°23' W 071°03'0 0.0
2018-Feb-17 08:00N 42°23' W 071°03'0 0.0
2018-Feb-17 00:24N 42°23' W 071°03'0 0.0
2018-Feb-16 23:45N 42°23' W 071°03'0 0.0
2018-Feb-16 19:39N 42°23' W 071°03'0 0.0
2018-Feb-16 19:27N 42°23' W 071°03'0 0.0
2018-Feb-16 18:27N 42°23' W 071°03'0 0.0
2018-Feb-16 17:45N 42°23' W 071°03'0 0.0
2018-Feb-16 17:15N 42°23' W 071°03'0 0.0
2018-Feb-16 16:39N 42°23' W 071°03'0 0.0
2018-Feb-16 16:15N 42°23' W 071°03'0 0.0
2018-Feb-16 16:00N 42°23' W 071°03'0 0.0
2018-Feb-16 15:24N 42°23' W 071°03'0 0.0
2018-Feb-16 14:48N 42°23' W 071°03'0 0.0
2018-Feb-16 14:27N 42°23' W 071°03'0 0.0
2018-Feb-16 13:36N 42°23' W 071°03'0 0.0
2018-Feb-16 13:27N 42°23' W 071°03'0 0.0
2018-Feb-16 12:51N 42°23' W 071°03'0 0.0
2018-Feb-16 12:27N 42°23' W 071°03'0 0.0
2018-Feb-16 11:24N 42°23' W 071°03'0 0.0
2018-Feb-16 10:57N 42°23' W 071°03'0 0.0
2018-Feb-16 10:30N 42°23' W 071°03'0 0.0
2018-Feb-16 08:45N 42°23' W 071°03'0 0.0
2018-Feb-16 08:27N 42°23' W 071°03'0 0.0
2018-Feb-16 07:51N 42°23' W 071°03'0 0.0
2018-Feb-16 06:48N 42°23' W 071°03'0 0.0
2018-Feb-16 06:30N 42°23' W 071°03'0 0.0
2018-Feb-16 05:39N 42°23' W 071°03'0 0.0
2018-Feb-16 05:12N 42°23' W 071°03'0 0.0
2018-Feb-16 04:48N 42°23' W 071°03'0 0.0
2018-Feb-16 04:30N 42°23' W 071°03'0 0.0
2018-Feb-16 03:33N 42°23' W 071°03'0 0.0
2018-Feb-16 03:21N 42°23' W 071°03'0 0.0
2018-Feb-16 02:57N 42°23' W 071°03'0 0.0
2018-Feb-16 02:30N 42°23' W 071°03'0 0.0
2018-Feb-16 01:51N 42°23' W 071°03'0 0.0
2018-Feb-16 01:30N 42°23' W 071°03'0 0.0
2018-Feb-16 01:00N 42°23' W 071°03'2 4.7
2018-Feb-16 00:30N 42°21' W 071°01'4 8.4
2018-Feb-15 23:59N 42°22' W 070°55'5 9.6
2018-Feb-15 23:30N 42°23' W 070°50'5 9.9
2018-Feb-15 22:59N 42°23' W 070°43'5 9.9
2018-Feb-15 22:30N 42°23' W 070°36'3 5.5
2018-Feb-15 22:00N 42°23' W 070°32'1 2.4
2018-Feb-15 21:30N 42°23' W 070°33'0 0.8
2018-Feb-15 21:00N 42°23' W 070°33'0 0.5
2018-Feb-15 20:30N 42°23' W 070°34'1 2.3
2018-Feb-15 20:00N 42°24' W 070°34'0 0.9
2018-Feb-15 19:30N 42°24' W 070°34'0 0.8
2018-Feb-15 18:59N 42°23' W 070°35'0 0.5
2018-Feb-15 18:30N 42°23' W 070°35'0 0.4
2018-Feb-15 18:00N 42°23' W 070°35'0 0.4
2018-Feb-15 17:30N 42°23' W 070°35'0 0.3
2018-Feb-15 17:00N 42°23' W 070°35'1 1.6
2018-Feb-15 16:30N 42°23' W 070°34'0 0.3
2018-Feb-15 16:00N 42°23' W 070°34'0 0.7
2018-Feb-15 15:30N 42°23' W 070°34'2 3.0
2018-Feb-15 15:00N 42°24' W 070°32'0 0.7
2018-Feb-15 14:30N 42°24' W 070°33'0 0.1
2018-Feb-15 14:00N 42°24' W 070°33'0 0.1
2018-Feb-15 13:30N 42°24' W 070°33'0 0.2
2018-Feb-15 13:00N 42°24' W 070°33'1 1.0
2018-Feb-15 12:30N 42°24' W 070°33'0 0.4
2018-Feb-15 12:00N 42°24' W 070°33'0 0.4
2018-Feb-15 11:30N 42°24' W 070°33'0 0.6
2018-Feb-15 11:00N 42°23' W 070°33'0 0.9
2018-Feb-15 10:30N 42°24' W 070°32'1 1.5
2018-Feb-15 10:00N 42°25' W 070°32'2 3.6
2018-Feb-15 09:30N 42°26' W 070°31'1 1.7
2018-Feb-15 09:00N 42°26' W 070°32'2 3.0
2018-Feb-15 08:30N 42°24' W 070°32'1 2.8
2018-Feb-15 08:00N 42°24' W 070°31'0 0.4
2018-Feb-15 07:30N 42°24' W 070°30'0 0.8
2018-Feb-15 07:00N 42°24' W 070°31'0 0.8
2018-Feb-15 06:30N 42°24' W 070°31'2 3.4
2018-Feb-15 06:00N 42°25' W 070°30'1 1.4
2018-Feb-15 05:30N 42°26' W 070°30'0 0.7
2018-Feb-15 05:00N 42°26' W 070°30'0 0.6
2018-Feb-15 04:30N 42°25' W 070°30'0 0.6
2018-Feb-15 04:00N 42°25' W 070°31'0 0.7
2018-Feb-15 03:30N 42°25' W 070°31'0 0.7
2018-Feb-15 03:00N 42°24' W 070°31'0 0.8
2018-Feb-15 02:30N 42°24' W 070°31'0 0.6
2018-Feb-15 02:00N 42°24' W 070°31'0 0.5
2018-Feb-15 01:30N 42°24' W 070°31'0 0.5
2018-Feb-15 01:00N 42°23' W 070°31'0 0.4
2018-Feb-15 00:30N 42°23' W 070°31'0 0.3
2018-Feb-15 00:00N 42°23' W 070°31'0 0.4
2018-Feb-14 23:30N 42°23' W 070°31'0 0.3
2018-Feb-14 23:00N 42°23' W 070°31'0 0.3
2018-Feb-14 22:30N 42°23' W 070°31'1 1.0
2018-Feb-14 22:00N 42°23' W 070°32'1 3.0
2018-Feb-14 21:30N 42°25' W 070°31'0 0.6
2018-Feb-14 21:00N 42°24' W 070°32'0 0.7
2018-Feb-14 20:30N 42°24' W 070°32'0 0.6
2018-Feb-14 20:00N 42°24' W 070°32'1 2.0
2018-Feb-14 19:30N 42°23' W 070°33'0 0.3
2018-Feb-14 19:00N 42°23' W 070°33'1 2.7
2018-Feb-14 18:30N 42°25' W 070°33'1 1.6
2018-Feb-14 18:00N 42°25' W 070°33'2 4.1
2018-Feb-14 17:30N 42°23' W 070°33'1 1.6
2018-Feb-14 17:00N 42°24' W 070°32'2 4.1
2018-Feb-14 16:30N 42°23' W 070°30'1 2.5
2018-Feb-14 16:00N 42°24' W 070°31'2 4.3
2018-Feb-14 15:30N 42°26' W 070°32'0 0.4
2018-Feb-14 15:00N 42°26' W 070°33'1 1.1
2018-Feb-14 14:30N 42°25' W 070°33'1 1.0
2018-Feb-14 14:00N 42°25' W 070°32'1 1.0
2018-Feb-14 13:30N 42°24' W 070°32'1 1.4
2018-Feb-14 13:00N 42°25' W 070°32'1 1.2
2018-Feb-14 12:30N 42°25' W 070°32'1 1.1
2018-Feb-14 12:00N 42°25' W 070°32'1 1.1
2018-Feb-14 11:30N 42°24' W 070°32'1 1.3
2018-Feb-14 11:00N 42°25' W 070°31'1 2.3
2018-Feb-14 10:30N 42°25' W 070°30'0 0.9
2018-Feb-14 10:00N 42°25' W 070°30'0 1.0
2018-Feb-14 09:30N 42°25' W 070°31'0 0.9
2018-Feb-14 09:00N 42°24' W 070°31'0 0.9
2018-Feb-14 08:30N 42°24' W 070°31'0 0.5
2018-Feb-14 08:00N 42°24' W 070°31'2 3.5
2018-Feb-14 07:30N 42°25' W 070°30'0 1.0
2018-Feb-14 07:00N 42°25' W 070°30'1 1.0
2018-Feb-14 06:30N 42°24' W 070°30'1 1.1
2018-Feb-14 06:00N 42°24' W 070°31'1 1.1
2018-Feb-14 05:30N 42°23' W 070°31'1 1.1
2018-Feb-14 05:00N 42°23' W 070°32'1 2.5
2018-Feb-14 04:30N 42°24' W 070°33'1 1.0
2018-Feb-14 04:00N 42°24' W 070°34'1 1.1
2018-Feb-14 03:30N 42°23' W 070°34'1 1.1
2018-Feb-14 03:00N 42°23' W 070°34'0 0.9
2018-Feb-14 02:30N 42°23' W 070°34'1 1.8
2018-Feb-14 02:00N 42°24' W 070°35'0 1.0
2018-Feb-14 01:30N 42°23' W 070°34'0 1.0
2018-Feb-14 01:00N 42°23' W 070°34'0 0.9
2018-Feb-14 00:30N 42°23' W 070°34'1 2.3
2018-Feb-14 00:00N 42°23' W 070°35'0 0.8
2018-Feb-13 23:30N 42°23' W 070°35'0 0.6
2018-Feb-13 23:00N 42°23' W 070°34'0 0.5
2018-Feb-13 22:30N 42°23' W 070°34'0 0.6
2018-Feb-13 22:00N 42°23' W 070°34'1 2.2
2018-Feb-13 21:30N 42°22' W 070°33'0 0.7
2018-Feb-13 21:00N 42°22' W 070°33'2 3.6
2018-Feb-13 20:30N 42°24' W 070°32'1 2.4
2018-Feb-13 20:00N 42°23' W 070°34'1 1.0
2018-Feb-13 19:30N 42°22' W 070°34'1 1.6
2018-Feb-13 19:00N 42°22' W 070°33'1 2.9
2018-Feb-13 18:30N 42°24' W 070°32'2 2.2
2018-Feb-13 17:28N 42°21' W 070°32'2 3.7
2018-Feb-13 17:00N 42°23' W 070°32'2 3.9
2018-Feb-13 16:30N 42°25' W 070°32'2 3.7
2018-Feb-13 15:59N 42°23' W 070°32'1 3.2
2018-Feb-13 15:30N 42°22' W 070°32'2 3.9
2018-Feb-13 15:00N 42°24' W 070°32'1 1.0
2018-Feb-13 14:29N 42°23' W 070°32'2 3.5
2018-Feb-13 14:00N 42°22' W 070°33'0 1.0
2018-Feb-13 13:30N 42°21' W 070°33'3 5.0
2018-Feb-13 13:00N 42°23' W 070°32'1 1.4
2018-Feb-13 12:30N 42°23' W 070°32'2 3.4
2018-Feb-13 12:00N 42°21' W 070°32'2 3.6
2018-Feb-13 11:30N 42°23' W 070°32'1 2.0
2018-Feb-13 11:00N 42°24' W 070°32'2 4.2
2018-Feb-13 10:30N 42°22' W 070°32'1 1.7
2018-Feb-13 10:00N 42°23' W 070°32'1 1.1
2018-Feb-13 09:30N 42°23' W 070°32'1 3.0
2018-Feb-13 09:00N 42°22' W 070°32'1 1.2
2018-Feb-13 08:30N 42°22' W 070°32'1 1.1
2018-Feb-13 08:00N 42°23' W 070°32'1 1.0
2018-Feb-13 07:30N 42°23' W 070°33'2 3.8
2018-Feb-13 07:00N 42°21' W 070°32'0 0.5
2018-Feb-13 06:30N 42°22' W 070°32'1 1.3
2018-Feb-13 06:00N 42°22' W 070°32'1 1.2
2018-Feb-13 05:30N 42°23' W 070°32'1 2.4
2018-Feb-13 05:00N 42°22' W 070°34'1 1.6
2018-Feb-13 04:30N 42°23' W 070°33'1 1.0
2018-Feb-13 04:00N 42°23' W 070°34'2 3.6
2018-Feb-13 03:30N 42°21' W 070°34'1 1.4
2018-Feb-13 03:00N 42°21' W 070°33'1 1.2
2018-Feb-13 02:30N 42°22' W 070°33'0 0.6
2018-Feb-13 02:00N 42°22' W 070°34'1 2.2
2018-Feb-13 01:30N 42°21' W 070°34'0 0.8
2018-Feb-13 01:00N 42°21' W 070°35'2 3.3
2018-Feb-13 00:30N 42°22' W 070°34'1 1.8
2018-Feb-13 00:00N 42°23' W 070°33'0 0.5
2018-Feb-12 23:30N 42°23' W 070°33'0 0.4
2018-Feb-12 23:00N 42°23' W 070°34'2 4.4
2018-Feb-12 22:30N 42°23' W 070°37'5 9.9
2018-Feb-12 22:00N 42°23' W 070°43'510.0
2018-Feb-12 21:30N 42°23' W 070°50'5 9.4
2018-Feb-12 21:00N 42°21' W 070°56'4 8.7
2018-Feb-12 20:30N 42°21' W 071°02'2 2.8
2018-Feb-12 19:49N 42°23' W 071°03'0 0.0
2018-Feb-12 11:58N 42°23' W 071°03'0 0.0
2018-Feb-12 11:28N 42°23' W 071°03'0 0.0
2018-Feb-12 10:19N 42°23' W 071°03'0 0.0
2018-Feb-12 09:40N 42°23' W 071°03'0 0.0
2018-Feb-12 09:19N 42°23' W 071°03'0 0.0
2018-Feb-12 08:52N 42°23' W 071°03'0 0.0
2018-Feb-11 21:07N 42°23' W 071°03'0 0.0
2018-Feb-11 20:43N 42°23' W 071°03'0 0.0
2018-Feb-11 20:28N 42°23' W 071°03'0 0.0
2018-Feb-11 14:25N 42°23' W 071°03'0 0.0
2018-Feb-11 13:49N 42°23' W 071°03'0 0.0
2018-Feb-11 10:13N 42°23' W 071°03'0 0.0
2018-Feb-11 09:43N 42°23' W 071°03'0 0.0
2018-Feb-11 09:25N 42°23' W 071°03'0 0.0
2018-Feb-11 08:55N 42°23' W 071°03'0 0.0
2018-Feb-11 06:01N 42°23' W 071°03'0 0.0
2018-Feb-11 05:58N 42°23' W 071°03'0 0.0
2018-Feb-11 04:04N 42°23' W 071°03'0 0.0
2018-Feb-11 03:54N 42°23' W 071°03'1 3.7
2018-Feb-11 03:31N 42°21' W 071°02'5 8.0
2018-Feb-11 02:56N 42°21' W 070°56'4 9.3
2018-Feb-11 02:31N 42°23' W 070°51'5 9.7
2018-Feb-11 02:01N 42°24' W 070°45'4 7.4
2018-Feb-11 01:31N 42°25' W 070°40'0 0.6
2018-Feb-11 01:00N 42°25' W 070°40'0 0.7
2018-Feb-11 00:31N 42°25' W 070°40'0 0.6
2018-Feb-11 00:00N 42°25' W 070°40'0 0.9
2018-Feb-10 23:31N 42°25' W 070°41'0 0.8
2018-Feb-10 23:01N 42°25' W 070°41'0 0.5
2018-Feb-10 22:31N 42°25' W 070°41'1 1.1
2018-Feb-10 22:01N 42°25' W 070°40'1 2.3
2018-Feb-10 21:30N 42°25' W 070°39'1 2.1
2018-Feb-10 21:00N 42°25' W 070°40'0 0.1
2018-Feb-10 20:30N 42°25' W 070°40'0 0.1
2018-Feb-10 20:00N 42°25' W 070°40'0 0.7
2018-Feb-10 19:30N 42°25' W 070°40'0 0.9
2018-Feb-10 19:00N 42°25' W 070°40'0 0.5
2018-Feb-10 18:31N 42°25' W 070°40'4 7.5
2018-Feb-10 18:00N 42°24' W 070°45'510.4
2018-Feb-10 17:31N 42°23' W 070°52'610.2
2018-Feb-10 16:54N 42°20' W 070°59'4 8.5
2018-Feb-10 16:29N 42°22' W 071°03'1 1.5
2018-Feb-10 15:57N 42°23' W 071°03'0 0.0
2018-Feb-10 15:18N 42°23' W 071°03'0 0.0
2018-Feb-10 12:00N 42°23' W 071°03'0 0.0
2018-Feb-10 11:30N 42°23' W 071°03'0 0.0
2018-Feb-10 11:00N 42°23' W 071°03'0 0.0
2018-Feb-10 10:30N 42°23' W 071°03'0 0.0
2018-Feb-10 09:51N 42°23' W 071°03'0 0.0
2018-Feb-10 09:30N 42°23' W 071°03'0 0.0
2018-Feb-10 09:00N 42°23' W 071°03'0 0.0
2018-Feb-10 08:27N 42°23' W 071°03'0 0.0
2018-Feb-10 07:54N 42°23' W 071°03'0 0.0
2018-Feb-10 07:24N 42°23' W 071°03'0 0.0
2018-Feb-10 06:54N 42°23' W 071°03'0 0.0
2018-Feb-10 06:27N 42°23' W 071°03'0 0.0
2018-Feb-10 06:00N 42°23' W 071°03'0 0.0
2018-Feb-10 05:30N 42°23' W 071°03'0 0.0
2018-Feb-10 05:00N 42°23' W 071°03'0 0.0
2018-Feb-10 04:30N 42°23' W 071°03'0 0.0
2018-Feb-10 03:57N 42°23' W 071°03'0 0.0
2018-Feb-10 03:30N 42°23' W 071°03'0 0.0
2018-Feb-10 03:00N 42°23' W 071°03'0 0.0
2018-Feb-10 02:09N 42°23' W 071°03'0 0.0
2018-Feb-10 01:57N 42°23' W 071°03'0 0.0
2018-Feb-10 01:15N 42°23' W 071°03'0 0.0
2018-Feb-10 00:00N 42°23' W 071°03'0 0.0
2018-Feb-09 23:27N 42°23' W 071°03'0 0.0
2018-Feb-09 23:00N 42°23' W 071°03'0 0.0
2018-Feb-09 22:39N 42°23' W 071°03'  
Track history (hours):
 
Tides and Currents Weather Stations Pressure Air Temp Water Temp Dewpoint Dewpoint Depression Visibility Wind Speed Wind Dir Waves Ship Positions

Warren Jr

Owner: Warren Jr, LLC, Cape May, NJ. More information available from US FCC via Universal Licensing System and Coast Guard Vessel Documentation Center.

Last reported at 2018-Feb-18 06:30 UTC. Time now 2018-Feb-18 06:52 UTC.
Position N 42°23' W 071°03'.

Length 46 m; draft 3.2 m.

MMSI: 367615560.

Date/timePositionNaut miles runAvg speedWind from/ knotsBaromVisibWave heightAir tempDewpointWater temp
2018-Feb-18 06:30N 42°23' W 071°03'0 0.0
2018-Feb-18 06:00N 42°23' W 071°03'0 0.0
2018-Feb-18 05:30N 42°23' W 071°03'0 0.0
2018-Feb-18 05:00N 42°23' W 071°03'0 0.0
2018-Feb-18 04:30N 42°23' W 071°03'0 0.0
2018-Feb-18 04:00N 42°23' W 071°03'0 0.0
2018-Feb-18 03:30N 42°23' W 071°03'0 0.0
2018-Feb-18 03:00N 42°23' W 071°03'0 0.0
2018-Feb-18 02:30N 42°23' W 071°03'0 0.0
2018-Feb-18 02:00N 42°23' W 071°03'0 0.0
2018-Feb-18 01:30N 42°23' W 071°03'0 0.0
2018-Feb-18 01:00N 42°23' W 071°03'0 0.0
2018-Feb-18 00:24N 42°23' W 071°03'0 0.0
2018-Feb-18 00:00N 42°23' W 071°03'0 0.0
2018-Feb-17 23:30N 42°23' W 071°03'0 0.0
2018-Feb-17 22:54N 42°23' W 071°03'0 0.0
2018-Feb-17 22:24N 42°23' W 071°03'0 0.0
2018-Feb-17 22:00N 42°23' W 071°03'0 0.0
2018-Feb-17 21:24N 42°23' W 071°03'0 0.0
2018-Feb-17 21:00N 42°23' W 071°03'0 0.0
2018-Feb-17 20:24N 42°23' W 071°03'0 0.0
2018-Feb-17 20:00N 42°23' W 071°03'0 0.0
2018-Feb-17 19:30N 42°23' W 071°03'0 0.0
2018-Feb-17 18:54N 42°23' W 071°03'0 0.0
2018-Feb-17 18:30N 42°23' W 071°03'0 0.0
2018-Feb-17 17:51N 42°23' W 071°03'0 0.0
2018-Feb-17 17:30N 42°23' W 071°03'0 0.0
2018-Feb-17 16:54N 42°23' W 071°03'0 0.0
2018-Feb-17 16:30N 42°23' W 071°03'0 0.0
2018-Feb-17 16:00N 42°23' W 071°03'0 0.0
2018-Feb-17 15:27N 42°23' W 071°03'0 0.0
2018-Feb-17 14:54N 42°23' W 071°03'0 0.0
2018-Feb-17 14:24N 42°23' W 071°03'0 0.0
2018-Feb-17 08:00N 42°23' W 071°03'0 0.0
2018-Feb-17 00:24N 42°23' W 071°03'0 0.0
2018-Feb-16 23:45N 42°23' W 071°03'0 0.0
2018-Feb-16 19:39N 42°23' W 071°03'0 0.0
2018-Feb-16 19:27N 42°23' W 071°03'0 0.0
2018-Feb-16 18:27N 42°23' W 071°03'0 0.0
2018-Feb-16 17:45N 42°23' W 071°03'0 0.0
2018-Feb-16 17:15N 42°23' W 071°03'0 0.0
2018-Feb-16 16:39N 42°23' W 071°03'0 0.0
2018-Feb-16 16:15N 42°23' W 071°03'0 0.0
2018-Feb-16 16:00N 42°23' W 071°03'0 0.0
2018-Feb-16 15:24N 42°23' W 071°03'0 0.0
2018-Feb-16 14:48N 42°23' W 071°03'0 0.0
2018-Feb-16 14:27N 42°23' W 071°03'0 0.0
2018-Feb-16 13:36N 42°23' W 071°03'0 0.0
2018-Feb-16 13:27N 42°23' W 071°03'0 0.0
2018-Feb-16 12:51N 42°23' W 071°03'0 0.0
2018-Feb-16 12:27N 42°23' W 071°03'0 0.0
2018-Feb-16 11:24N 42°23' W 071°03'0 0.0
2018-Feb-16 10:57N 42°23' W 071°03'0 0.0
2018-Feb-16 10:30N 42°23' W 071°03'0 0.0
2018-Feb-16 08:45N 42°23' W 071°03'0 0.0
2018-Feb-16 08:27N 42°23' W 071°03'0 0.0
2018-Feb-16 07:51N 42°23' W 071°03'0 0.0
2018-Feb-16 06:48N 42°23' W 071°03'0 0.0
2018-Feb-16 06:30N 42°23' W 071°03'0 0.0
2018-Feb-16 05:39N 42°23' W 071°03'0 0.0
2018-Feb-16 05:12N 42°23' W 071°03'0 0.0
2018-Feb-16 04:48N 42°23' W 071°03'0 0.0
2018-Feb-16 04:30N 42°23' W 071°03'0 0.0
2018-Feb-16 03:33N 42°23' W 071°03'0 0.0
2018-Feb-16 03:21N 42°23' W 071°03'0 0.0
2018-Feb-16 02:57N 42°23' W 071°03'0 0.0
2018-Feb-16 02:30N 42°23' W 071°03'0 0.0
2018-Feb-16 01:51N 42°23' W 071°03'0 0.0
2018-Feb-16 01:30N 42°23' W 071°03'0 0.0
2018-Feb-16 01:00N 42°23' W 071°03'2 4.7
2018-Feb-16 00:30N 42°21' W 071°01'4 8.4
2018-Feb-15 23:59N 42°22' W 070°55'5 9.6
2018-Feb-15 23:30N 42°23' W 070°50'5 9.9
2018-Feb-15 22:59N 42°23' W 070°43'5 9.9
2018-Feb-15 22:30N 42°23' W 070°36'3 5.5
2018-Feb-15 22:00N 42°23' W 070°32'1 2.4
2018-Feb-15 21:30N 42°23' W 070°33'0 0.8
2018-Feb-15 21:00N 42°23' W 070°33'0 0.5
2018-Feb-15 20:30N 42°23' W 070°34'1 2.3
2018-Feb-15 20:00N 42°24' W 070°34'0 0.9
2018-Feb-15 19:30N 42°24' W 070°34'0 0.8
2018-Feb-15 18:59N 42°23' W 070°35'0 0.5
2018-Feb-15 18:30N 42°23' W 070°35'0 0.4
2018-Feb-15 18:00N 42°23' W 070°35'0 0.4
2018-Feb-15 17:30N 42°23' W 070°35'0 0.3
2018-Feb-15 17:00N 42°23' W 070°35'1 1.6
2018-Feb-15 16:30N 42°23' W 070°34'0 0.3
2018-Feb-15 16:00N 42°23' W 070°34'0 0.7
2018-Feb-15 15:30N 42°23' W 070°34'2 3.0
2018-Feb-15 15:00N 42°24' W 070°32'0 0.7
2018-Feb-15 14:30N 42°24' W 070°33'0 0.1
2018-Feb-15 14:00N 42°24' W 070°33'0 0.1
2018-Feb-15 13:30N 42°24' W 070°33'0 0.2
2018-Feb-15 13:00N 42°24' W 070°33'1 1.0
2018-Feb-15 12:30N 42°24' W 070°33'0 0.4
2018-Feb-15 12:00N 42°24' W 070°33'0 0.4
2018-Feb-15 11:30N 42°24' W 070°33'0 0.6
2018-Feb-15 11:00N 42°23' W 070°33'0 0.9
2018-Feb-15 10:30N 42°24' W 070°32'1 1.5
2018-Feb-15 10:00N 42°25' W 070°32'2 3.6
2018-Feb-15 09:30N 42°26' W 070°31'1 1.7
2018-Feb-15 09:00N 42°26' W 070°32'2 3.0
2018-Feb-15 08:30N 42°24' W 070°32'1 2.8
2018-Feb-15 08:00N 42°24' W 070°31'0 0.4
2018-Feb-15 07:30N 42°24' W 070°30'0 0.8
2018-Feb-15 07:00N 42°24' W 070°31'0 0.8
2018-Feb-15 06:30N 42°24' W 070°31'2 3.4
2018-Feb-15 06:00N 42°25' W 070°30'1 1.4
2018-Feb-15 05:30N 42°26' W 070°30'0 0.7
2018-Feb-15 05:00N 42°26' W 070°30'0 0.6
2018-Feb-15 04:30N 42°25' W 070°30'0 0.6
2018-Feb-15 04:00N 42°25' W 070°31'0 0.7
2018-Feb-15 03:30N 42°25' W 070°31'0 0.7
2018-Feb-15 03:00N 42°24' W 070°31'0 0.8
2018-Feb-15 02:30N 42°24' W 070°31'0 0.6
2018-Feb-15 02:00N 42°24' W 070°31'0 0.5
2018-Feb-15 01:30N 42°24' W 070°31'0 0.5
2018-Feb-15 01:00N 42°23' W 070°31'0 0.4
2018-Feb-15 00:30N 42°23' W 070°31'0 0.3
2018-Feb-15 00:00N 42°23' W 070°31'0 0.4
2018-Feb-14 23:30N 42°23' W 070°31'0 0.3
2018-Feb-14 23:00N 42°23' W 070°31'0 0.3
2018-Feb-14 22:30N 42°23' W 070°31'1 1.0
2018-Feb-14 22:00N 42°23' W 070°32'1 3.0
2018-Feb-14 21:30N 42°25' W 070°31'0 0.6
2018-Feb-14 21:00N 42°24' W 070°32'0 0.7
2018-Feb-14 20:30N 42°24' W 070°32'0 0.6
2018-Feb-14 20:00N 42°24' W 070°32'1 2.0
2018-Feb-14 19:30N 42°23' W 070°33'0 0.3
2018-Feb-14 19:00N 42°23' W 070°33'1 2.7
2018-Feb-14 18:30N 42°25' W 070°33'1 1.6
2018-Feb-14 18:00N 42°25' W 070°33'2 4.1
2018-Feb-14 17:30N 42°23' W 070°33'1 1.6
2018-Feb-14 17:00N 42°24' W 070°32'2 4.1
2018-Feb-14 16:30N 42°23' W 070°30'1 2.5
2018-Feb-14 16:00N 42°24' W 070°31'2 4.3
2018-Feb-14 15:30N 42°26' W 070°32'0 0.4
2018-Feb-14 15:00N 42°26' W 070°33'1 1.1
2018-Feb-14 14:30N 42°25' W 070°33'1 1.0
2018-Feb-14 14:00N 42°25' W 070°32'1 1.0
2018-Feb-14 13:30N 42°24' W 070°32'1 1.4
2018-Feb-14 13:00N 42°25' W 070°32'1 1.2
2018-Feb-14 12:30N 42°25' W 070°32'1 1.1
2018-Feb-14 12:00N 42°25' W 070°32'1 1.1
2018-Feb-14 11:30N 42°24' W 070°32'1 1.3
2018-Feb-14 11:00N 42°25' W 070°31'1 2.3
2018-Feb-14 10:30N 42°25' W 070°30'0 0.9
2018-Feb-14 10:00N 42°25' W 070°30'0 1.0
2018-Feb-14 09:30N 42°25' W 070°31'0 0.9
2018-Feb-14 09:00N 42°24' W 070°31'0 0.9
2018-Feb-14 08:30N 42°24' W 070°31'0 0.5
2018-Feb-14 08:00N 42°24' W 070°31'2 3.5
2018-Feb-14 07:30N 42°25' W 070°30'0 1.0
2018-Feb-14 07:00N 42°25' W 070°30'1 1.0
2018-Feb-14 06:30N 42°24' W 070°30'1 1.1
2018-Feb-14 06:00N 42°24' W 070°31'1 1.1
2018-Feb-14 05:30N 42°23' W 070°31'1 1.1
2018-Feb-14 05:00N 42°23' W 070°32'1 2.5
2018-Feb-14 04:30N 42°24' W 070°33'1 1.0
2018-Feb-14 04:00N 42°24' W 070°34'1 1.1
2018-Feb-14 03:30N 42°23' W 070°34'1 1.1
2018-Feb-14 03:00N 42°23' W 070°34'0 0.9
2018-Feb-14 02:30N 42°23' W 070°34'1 1.8
2018-Feb-14 02:00N 42°24' W 070°35'0 1.0
2018-Feb-14 01:30N 42°23' W 070°34'0 1.0
2018-Feb-14 01:00N 42°23' W 070°34'0 0.9
2018-Feb-14 00:30N 42°23' W 070°34'1 2.3
2018-Feb-14 00:00N 42°23' W 070°35'0 0.8
2018-Feb-13 23:30N 42°23' W 070°35'0 0.6
2018-Feb-13 23:00N 42°23' W 070°34'0 0.5
2018-Feb-13 22:30N 42°23' W 070°34'0 0.6
2018-Feb-13 22:00N 42°23' W 070°34'1 2.2
2018-Feb-13 21:30N 42°22' W 070°33'0 0.7
2018-Feb-13 21:00N 42°22' W 070°33'2 3.6
2018-Feb-13 20:30N 42°24' W 070°32'1 2.4
2018-Feb-13 20:00N 42°23' W 070°34'1 1.0
2018-Feb-13 19:30N 42°22' W 070°34'1 1.6
2018-Feb-13 19:00N 42°22' W 070°33'1 2.9
2018-Feb-13 18:30N 42°24' W 070°32'2 2.2
2018-Feb-13 17:28N 42°21' W 070°32'2 3.7
2018-Feb-13 17:00N 42°23' W 070°32'2 3.9
2018-Feb-13 16:30N 42°25' W 070°32'2 3.7
2018-Feb-13 15:59N 42°23' W 070°32'1 3.2
2018-Feb-13 15:30N 42°22' W 070°32'2 3.9
2018-Feb-13 15:00N 42°24' W 070°32'1 1.0
2018-Feb-13 14:29N 42°23' W 070°32'2 3.5
2018-Feb-13 14:00N 42°22' W 070°33'0 1.0
2018-Feb-13 13:30N 42°21' W 070°33'3 5.0
2018-Feb-13 13:00N 42°23' W 070°32'1 1.4
2018-Feb-13 12:30N 42°23' W 070°32'2 3.4
2018-Feb-13 12:00N 42°21' W 070°32'2 3.6
2018-Feb-13 11:30N 42°23' W 070°32'1 2.0
2018-Feb-13 11:00N 42°24' W 070°32'2 4.2
2018-Feb-13 10:30N 42°22' W 070°32'1 1.7
2018-Feb-13 10:00N 42°23' W 070°32'1 1.1
2018-Feb-13 09:30N 42°23' W 070°32'1 3.0
2018-Feb-13 09:00N 42°22' W 070°32'1 1.2
2018-Feb-13 08:30N 42°22' W 070°32'1 1.1
2018-Feb-13 08:00N 42°23' W 070°32'1 1.0
2018-Feb-13 07:30N 42°23' W 070°33'2 3.8
2018-Feb-13 07:00N 42°21' W 070°32'0 0.5
2018-Feb-13 06:30N 42°22' W 070°32'1 1.3
2018-Feb-13 06:00N 42°22' W 070°32'1 1.2
2018-Feb-13 05:30N 42°23' W 070°32'1 2.4
2018-Feb-13 05:00N 42°22' W 070°34'1 1.6
2018-Feb-13 04:30N 42°23' W 070°33'1 1.0
2018-Feb-13 04:00N 42°23' W 070°34'2 3.6
2018-Feb-13 03:30N 42°21' W 070°34'1 1.4
2018-Feb-13 03:00N 42°21' W 070°33'1 1.2
2018-Feb-13 02:30N 42°22' W 070°33'0 0.6
2018-Feb-13 02:00N 42°22' W 070°34'1 2.2
2018-Feb-13 01:30N 42°21' W 070°34'0 0.8
2018-Feb-13 01:00N 42°21' W 070°35'2 3.3
2018-Feb-13 00:30N 42°22' W 070°34'1 1.8
2018-Feb-13 00:00N 42°23' W 070°33'0 0.5
2018-Feb-12 23:30N 42°23' W 070°33'0 0.4
2018-Feb-12 23:00N 42°23' W 070°34'2 4.4
2018-Feb-12 22:30N 42°23' W 070°37'5 9.9
2018-Feb-12 22:00N 42°23' W 070°43'510.0
2018-Feb-12 21:30N 42°23' W 070°50'5 9.4
2018-Feb-12 21:00N 42°21' W 070°56'4 8.7
2018-Feb-12 20:30N 42°21' W 071°02'2 2.8
2018-Feb-12 19:49N 42°23' W 071°03'0 0.0
2018-Feb-12 11:58N 42°23' W 071°03'0 0.0
2018-Feb-12 11:28N 42°23' W 071°03'0 0.0
2018-Feb-12 10:19N 42°23' W 071°03'0 0.0
2018-Feb-12 09:40N 42°23' W 071°03'0 0.0
2018-Feb-12 09:19N 42°23' W 071°03'0 0.0
2018-Feb-12 08:52N 42°23' W 071°03'0 0.0
2018-Feb-11 21:07N 42°23' W 071°03'0 0.0
2018-Feb-11 20:43N 42°23' W 071°03'0 0.0
2018-Feb-11 20:28N 42°23' W 071°03'0 0.0
2018-Feb-11 14:25N 42°23' W 071°03'0 0.0
2018-Feb-11 13:49N 42°23' W 071°03'0 0.0
2018-Feb-11 10:13N 42°23' W 071°03'0 0.0
2018-Feb-11 09:43N 42°23' W 071°03'0 0.0
2018-Feb-11 09:25N 42°23' W 071°03'0 0.0
2018-Feb-11 08:55N 42°23' W 071°03'0 0.0
2018-Feb-11 06:01N 42°23' W 071°03'0 0.0
2018-Feb-11 05:58N 42°23' W 071°03'0 0.0
2018-Feb-11 04:04N 42°23' W 071°03'0 0.0
2018-Feb-11 03:54N 42°23' W 071°03'1 3.7
2018-Feb-11 03:31N 42°21' W 071°02'5 8.0
2018-Feb-11 02:56N 42°21' W 070°56'4 9.3
2018-Feb-11 02:31N 42°23' W 070°51'5 9.7
2018-Feb-11 02:01N 42°24' W 070°45'4 7.4
2018-Feb-11 01:31N 42°25' W 070°40'0 0.6
2018-Feb-11 01:00N 42°25' W 070°40'0 0.7
2018-Feb-11 00:31N 42°25' W 070°40'0 0.6
2018-Feb-11 00:00N 42°25' W 070°40'0 0.9
2018-Feb-10 23:31N 42°25' W 070°41'0 0.8
2018-Feb-10 23:01N 42°25' W 070°41'0 0.5
2018-Feb-10 22:31N 42°25' W 070°41'1 1.1
2018-Feb-10 22:01N 42°25' W 070°40'1 2.3
2018-Feb-10 21:30N 42°25' W 070°39'1 2.1
2018-Feb-10 21:00N 42°25' W 070°40'0 0.1
2018-Feb-10 20:30N 42°25' W 070°40'0 0.1
2018-Feb-10 20:00N 42°25' W 070°40'0 0.7
2018-Feb-10 19:30N 42°25' W 070°40'0 0.9
2018-Feb-10 19:00N 42°25' W 070°40'0 0.5
2018-Feb-10 18:31N 42°25' W 070°40'4 7.5
2018-Feb-10 18:00N 42°24' W 070°45'510.4
2018-Feb-10 17:31N 42°23' W 070°52'610.2
2018-Feb-10 16:54N 42°20' W 070°59'4 8.5
2018-Feb-10 16:29N 42°22' W 071°03'1 1.5
2018-Feb-10 15:57N 42°23' W 071°03'0 0.0
2018-Feb-10 15:18N 42°23' W 071°03'0 0.0
2018-Feb-10 12:00N 42°23' W 071°03'0 0.0
2018-Feb-10 11:30N 42°23' W 071°03'0 0.0
2018-Feb-10 11:00N 42°23' W 071°03'0 0.0
2018-Feb-10 10:30N 42°23' W 071°03'0 0.0
2018-Feb-10 09:51N 42°23' W 071°03'0 0.0
2018-Feb-10 09:30N 42°23' W 071°03'0 0.0
2018-Feb-10 09:00N 42°23' W 071°03'0 0.0
2018-Feb-10 08:27N 42°23' W 071°03'0 0.0
2018-Feb-10 07:54N 42°23' W 071°03'0 0.0
2018-Feb-10 07:24N 42°23' W 071°03'0 0.0
2018-Feb-10 06:54N 42°23' W 071°03'0 0.0
2018-Feb-10 06:27N 42°23' W 071°03'0 0.0
2018-Feb-10 06:00N 42°23' W 071°03'0 0.0
2018-Feb-10 05:30N 42°23' W 071°03'0 0.0
2018-Feb-10 05:00N 42°23' W 071°03'0 0.0
2018-Feb-10 04:30N 42°23' W 071°03'0 0.0
2018-Feb-10 03:57N 42°23' W 071°03'0 0.0
2018-Feb-10 03:30N 42°23' W 071°03'0 0.0
2018-Feb-10 03:00N 42°23' W 071°03'0 0.0
2018-Feb-10 02:09N 42°23' W 071°03'0 0.0
2018-Feb-10 01:57N 42°23' W 071°03'0 0.0
2018-Feb-10 01:15N 42°23' W 071°03'0 0.0
2018-Feb-10 00:00N 42°23' W 071°03'0 0.0
2018-Feb-09 23:27N 42°23' W 071°03'0 0.0
2018-Feb-09 23:00N 42°23' W 071°03'0 0.0
2018-Feb-09 22:39N 42°23' W 071°03'  

Dump ship's entire track history